Kolt, Denmark
Current Conditions -  °F | °C
As of 11:20 AM on Saturday 20 Dec 2014 (Local Time) from EKAH Reporting Station
Rain Showers Rain Showers  
Wind Chill: 30°   Ceiling: 1900
Heat Index: 39°   Visibility: 6mi
Dew Point: 34°   Wind: 16mph
Humidity: 81%   Direction: 260°W
Pressure: 29.44"   Gusts: 33mph
Location:  56.11°N, 10.07°E
Report Text: EKAH 201020Z AUTO 26014G29KT 230V300 9000NDV -SHRA BKN019///04/01 Q0997
Loading
Personal Weather Stations






























Interactive Weather Map New forecast layout! Learn more

10-Day Weather Forecast

Advertisements
Track Severe Weather on mobile